Terminal Aerodrome Forecast
Issued by NWS

Home | Current Version | Previous Version | Text Only | Print | Product List | Glossary On
Versions: 1 2 3 4 5 6 7 8 9 10 11 12 13 14 15 16 17 18 19 20 21 22 23 24 25 26 27 28 29 30 31 32 33 34 35 36 37 38 39 40 41 42 43 44 45 46 47 48 49 50
000
FTUS43 KDDC 202144 AAA
TAFGCK
TAF AMD
KGCK 202144Z 2022/2118 18013KT P6SM OVC050
     FM202300 18013KT P6SM VCTS OVC040CB
      TEMPO 2023/2103 3SM -TSRA BKN030CB
     FM210300 16011KT P6SM BKN100
     FM211400 20013KT P6SM FEW200=

USA.gov is the U.S. government's official web portal to all federal, state and local government web resources and services.